createdAt,value
2018-01-20T00:02:15.773Z,14.27
2018-01-20T00:04:43.378Z,13.37
2018-01-20T00:07:10.933Z,13.80
2018-01-20T00:09:50.219Z,14.93
2018-01-20T00:12:17.808Z,16.07
2018-01-20T00:14:45.440Z,14.20
2018-01-20T00:17:16.016Z,13.83
2018-01-20T00:19:43.574Z,16.93
2018-01-20T00:22:27.976Z,16.00
2018-01-20T00:25:01.119Z,15.97
2018-01-20T00:27:29.126Z,16.60
2018-01-20T00:29:56.660Z,17.03
2018-01-20T00:32:24.254Z,18.50
2018-01-20T00:34:51.787Z,19.40
2018-01-20T00:37:19.333Z,20.73
2018-01-20T00:39:46.923Z,21.60
2018-01-20T00:42:15.460Z,18.53
2018-01-20T00:44:43.017Z,20.80
2018-01-20T00:47:10.580Z,21.20
2018-01-20T00:49:38.101Z,17.80
2018-01-20T00:52:05.657Z,21.30
2018-01-20T00:54:33.176Z,22.40
2018-01-20T00:57:00.724Z,24.00
2018-01-20T00:59:28.282Z,28.10
2018-01-20T01:01:56.027Z,23.30
2018-01-20T01:04:23.593Z,22.00
2018-01-20T01:06:51.153Z,19.80
2018-01-20T01:09:18.745Z,21.07
2018-01-20T01:11:46.277Z,17.37
2018-01-20T01:14:13.834Z,19.53
2018-01-20T01:16:41.572Z,17.37
2018-01-20T01:19:09.163Z,18.10
2018-01-20T01:21:36.681Z,18.90
2018-01-20T01:24:04.212Z,19.20
2018-01-20T01:26:31.793Z,18.27
2018-01-20T01:28:59.314Z,17.43
2018-01-20T01:31:26.861Z,17.10
2018-01-20T01:33:54.481Z,13.93
2018-01-20T01:36:22.045Z,15.33
2018-01-20T01:38:49.614Z,13.17
2018-01-20T01:41:17.205Z,12.53
2018-01-20T01:43:44.792Z,14.47
2018-01-20T01:46:12.412Z,13.47
2018-01-20T01:48:39.974Z,12.93
2018-01-20T01:51:07.545Z,13.83
2018-01-20T01:53:35.190Z,12.20
2018-01-20T01:56:02.745Z,14.50
2018-01-20T01:58:30.272Z,11.40
2018-01-20T02:00:57.827Z,11.60
2018-01-20T02:03:25.347Z,12.10
2018-01-20T02:05:52.942Z,12.30
2018-01-20T02:08:20.506Z,11.33
2018-01-20T02:10:48.095Z,12.43
2018-01-20T02:13:15.672Z,12.70
2018-01-20T02:15:43.268Z,12.27
2018-01-20T02:18:10.829Z,14.10
2018-01-20T02:20:38.426Z,12.83
2018-01-20T02:23:05.991Z,13.57
2018-01-20T02:25:33.646Z,13.83
2018-01-20T02:28:01.179Z,14.23
2018-01-20T02:30:29.033Z,14.50
2018-01-20T02:32:56.589Z,14.67
2018-01-20T02:35:24.119Z,14.53
2018-01-20T02:37:51.738Z,16.43
2018-01-20T02:40:19.290Z,16.60
2018-01-20T02:42:46.858Z,17.73
2018-01-20T02:45:14.445Z,17.80
2018-01-20T02:47:41.985Z,16.63
2018-01-20T02:50:09.503Z,16.23
2018-01-20T02:52:37.082Z,15.77
2018-01-20T02:55:04.843Z,17.00
2018-01-20T02:57:32.405Z,14.37
2018-01-20T03:00:00.023Z,15.33
2018-01-20T03:02:27.731Z,17.13
2018-01-20T03:04:55.296Z,18.80
2018-01-20T03:07:22.990Z,20.63
2018-01-20T03:09:50.542Z,18.57
2018-01-20T03:12:18.674Z,19.13
2018-01-20T03:14:46.204Z,20.90
2018-01-20T03:17:13.758Z,18.67
2018-01-20T03:19:41.395Z,19.77
2018-01-20T03:22:08.959Z,24.00
2018-01-20T03:24:36.520Z,20.50
2018-01-20T03:27:04.319Z,22.47
2018-01-20T03:29:31.910Z,20.03
2018-01-20T03:31:59.477Z,21.27
2018-01-20T03:34:27.078Z,24.03
2018-01-20T03:36:54.600Z,24.83
2018-01-20T03:39:22.497Z,24.60
2018-01-20T03:41:50.054Z,23.90
2018-01-20T03:44:17.841Z,25.30
2018-01-20T03:46:45.510Z,24.63
2018-01-20T03:49:13.032Z,29.67
2018-01-20T03:51:40.867Z,27.00
2018-01-20T03:54:08.392Z,29.50
2018-01-20T03:56:35.949Z,31.20
2018-01-20T03:59:03.594Z,28.77
2018-01-20T04:01:31.154Z,32.23
2018-01-20T04:03:58.943Z,33.13
2018-01-20T04:06:26.522Z,29.67
2018-01-20T04:08:54.098Z,30.70
2018-01-20T04:11:21.714Z,32.00
2018-01-20T04:13:49.266Z,32.03
2018-01-20T04:16:16.817Z,34.40
2018-01-20T04:18:44.375Z,32.50
2018-01-20T04:21:11.910Z,33.33
2018-01-20T04:23:39.493Z,34.23
2018-01-20T04:26:07.008Z,28.63
2018-01-20T04:28:34.564Z,29.77
2018-01-20T04:31:02.435Z,31.23
2018-01-20T04:33:30.001Z,31.43
2018-01-20T04:35:57.570Z,26.87
2018-01-20T04:38:25.151Z,30.67
2018-01-20T04:40:52.714Z,29.37
2018-01-20T04:43:20.311Z,25.47
2018-01-20T04:45:48.130Z,27.33
2018-01-20T04:48:15.690Z,28.93
2018-01-20T04:50:43.277Z,26.77
2018-01-20T04:53:10.905Z,29.10
2018-01-20T04:55:38.483Z,29.37
2018-01-20T04:58:06.039Z,28.33
2018-01-20T05:00:33.935Z,26.20
2018-01-20T05:03:01.504Z,29.70
2018-01-20T05:05:29.153Z,27.80
2018-01-20T05:07:56.769Z,28.93
2018-01-20T05:10:24.362Z,29.03
2018-01-20T05:12:51.932Z,30.43
2018-01-20T05:15:19.520Z,32.30
2018-01-20T05:17:47.044Z,29.83
2018-01-20T05:20:14.634Z,30.13
2018-01-20T05:22:42.148Z,31.90
2018-01-20T05:25:09.736Z,30.63
2018-01-20T05:27:37.264Z,31.90
2018-01-20T05:30:05.068Z,29.97
2018-01-20T05:32:32.636Z,29.70
2018-01-20T05:35:00.202Z,28.73
2018-01-20T05:37:27.794Z,28.27
2018-01-20T05:39:55.353Z,30.23
2018-01-20T05:42:22.937Z,30.30
2018-01-20T05:44:50.659Z,32.90
2018-01-20T05:47:18.656Z,30.27
2018-01-20T05:49:46.223Z,30.47
2018-01-20T05:52:13.757Z,29.40
2018-01-20T05:54:41.311Z,29.10
2018-01-20T05:57:08.914Z,28.60
2018-01-20T05:59:36.471Z,30.67
2018-01-20T06:02:04.026Z,29.07
2018-01-20T06:04:31.610Z,28.73
2018-01-20T06:06:59.123Z,31.47
2018-01-20T06:09:26.795Z,28.70
2018-01-20T06:11:56.985Z,29.30
2018-01-20T06:14:24.583Z,30.20
2018-01-20T06:16:52.146Z,29.93
2018-01-20T06:19:19.715Z,31.47
2018-01-20T06:21:47.283Z,28.43
2018-01-20T06:24:15.103Z,34.83
2018-01-20T06:26:42.694Z,28.00
2018-01-20T06:29:10.277Z,32.97
2018-01-20T06:31:37.898Z,32.27
2018-01-20T06:34:06.152Z,33.80
2018-01-20T06:36:34.106Z,31.30
2018-01-20T06:39:01.771Z,33.03
2018-01-20T06:41:29.333Z,29.87
2018-01-20T06:43:56.990Z,29.20
2018-01-20T06:46:24.950Z,30.90
2018-01-20T06:48:52.523Z,31.30
2018-01-20T06:51:20.043Z,31.20
2018-01-20T06:53:47.719Z,28.43
2018-01-20T06:56:15.253Z,31.37
2018-01-20T06:58:42.825Z,32.73
2018-01-20T07:01:10.390Z,30.93
2018-01-20T07:03:37.978Z,32.77
2018-01-20T07:06:05.538Z,33.47
2018-01-20T07:08:33.088Z,34.13
2018-01-20T07:11:00.633Z,33.93
2018-01-20T07:13:28.213Z,35.20
2018-01-20T07:15:55.877Z,29.40
2018-01-20T07:18:23.657Z,32.63
2018-01-20T07:20:51.382Z,32.17
2018-01-20T07:23:18.992Z,33.23
2018-01-20T07:25:46.511Z,32.97
2018-01-20T07:28:14.208Z,33.07
2018-01-20T07:30:41.765Z,30.20
2018-01-20T07:33:09.328Z,28.80
2018-01-20T07:35:36.894Z,27.90
2018-01-20T07:38:04.454Z,31.70
2018-01-20T07:40:31.999Z,30.40
2018-01-20T07:42:59.795Z,28.50
2018-01-20T07:45:27.384Z,39.27
2018-01-20T07:47:54.909Z,34.03
2018-01-20T07:50:22.466Z,32.00
2018-01-20T07:52:50.048Z,27.67
2018-01-20T07:55:18.092Z,30.90
2018-01-20T07:57:45.746Z,31.17
2018-01-20T08:00:13.325Z,28.57
2018-01-20T08:02:40.906Z,30.93
2018-01-20T08:05:08.565Z,27.67
2018-01-20T08:07:36.296Z,26.50
2018-01-20T08:10:04.016Z,24.37
2018-01-20T08:12:31.602Z,27.03
2018-01-20T08:14:59.119Z,29.03
2018-01-20T08:17:26.720Z,28.03
2018-01-20T08:19:54.679Z,26.90
2018-01-20T08:22:23.247Z,29.83
2018-01-20T08:24:50.818Z,27.80
2018-01-20T08:27:19.147Z,26.23
2018-01-20T08:29:46.670Z,28.33
2018-01-20T08:32:14.433Z,27.40
2018-01-20T08:34:42.005Z,25.70
2018-01-20T08:37:09.567Z,24.13
2018-01-20T08:39:37.154Z,24.23
2018-01-20T08:42:04.706Z,23.10
2018-01-20T08:44:32.314Z,23.10
2018-01-20T08:46:59.900Z,26.77
2018-01-20T08:49:27.974Z,33.03
2018-01-20T08:51:55.569Z,34.07
2018-01-20T08:54:23.196Z,27.37
2018-01-20T08:56:50.776Z,60.40
2018-01-20T08:59:18.305Z,32.73
2018-01-20T09:01:45.898Z,29.60
2018-01-20T09:04:13.662Z,30.20
2018-01-20T09:06:41.284Z,33.47
2018-01-20T09:09:08.912Z,29.17
2018-01-20T09:11:36.693Z,26.77
2018-01-20T09:14:04.217Z,24.67
2018-01-20T09:16:31.865Z,26.73
2018-01-20T09:18:59.890Z,24.53
2018-01-20T09:21:27.413Z,29.60
2018-01-20T09:23:55.237Z,33.33
2018-01-20T09:26:22.799Z,22.27
2018-01-20T09:28:50.349Z,24.20
2018-01-20T09:31:18.002Z,27.67
2018-01-20T09:33:45.598Z,22.23
2018-01-20T09:36:13.145Z,45.70
2018-01-20T09:38:40.980Z,21.70
2018-01-20T09:41:08.506Z,27.20
2018-01-20T09:43:36.075Z,23.50
2018-01-20T09:46:03.719Z,23.10
2018-01-20T09:48:31.330Z,21.83
2018-01-20T09:50:58.887Z,23.70
2018-01-20T09:53:26.698Z,25.37
2018-01-20T09:55:54.481Z,20.63
2018-01-20T09:58:22.061Z,24.10
2018-01-20T10:00:49.678Z,22.00
2018-01-20T10:03:17.603Z,22.03
2018-01-20T10:05:45.286Z,20.10
2018-01-20T10:08:13.078Z,22.33
2018-01-20T10:10:40.602Z,23.37
2018-01-20T10:13:08.397Z,25.97
2018-01-20T10:15:36.282Z,20.80
2018-01-20T10:18:03.853Z,25.67
2018-01-20T10:20:31.415Z,23.07
2018-01-20T10:22:58.987Z,33.23
2018-01-20T10:25:26.992Z,19.53
2018-01-20T10:27:55.487Z,20.80
2018-01-20T10:30:23.421Z,18.70
2018-01-20T10:32:51.017Z,18.40
2018-01-20T10:35:19.581Z,18.90
2018-01-20T10:37:47.267Z,17.70
2018-01-20T10:40:14.866Z,18.30
2018-01-20T10:42:42.492Z,18.80
2018-01-20T10:45:10.003Z,19.30
2018-01-20T10:47:37.581Z,18.27
2018-01-20T10:50:05.930Z,16.90
2018-01-20T10:52:33.574Z,23.10
2018-01-20T10:55:01.188Z,37.07
2018-01-20T10:57:28.690Z,28.17
2018-01-20T10:59:56.604Z,21.70
2018-01-20T11:02:24.502Z,19.03
2018-01-20T11:04:52.085Z,19.00
2018-01-20T11:07:19.590Z,19.67
2018-01-20T11:09:47.100Z,16.87
2018-01-20T11:12:15.310Z,19.27
2018-01-20T11:14:42.859Z,18.50
2018-01-20T11:17:10.874Z,18.73
2018-01-20T11:19:38.837Z,15.87
2018-01-20T11:22:06.398Z,20.10
2018-01-20T11:24:33.954Z,17.23
2018-01-20T11:27:02.036Z,18.30
2018-01-20T11:29:29.629Z,16.77
2018-01-20T11:31:57.247Z,18.13
2018-01-20T11:34:24.806Z,14.87
2018-01-20T11:36:52.449Z,15.47
2018-01-20T11:39:20.049Z,16.00
2018-01-20T11:41:47.621Z,16.50
2018-01-20T11:44:15.229Z,16.47
2018-01-20T11:46:42.755Z,16.03
2018-01-20T11:49:10.656Z,15.80
2018-01-20T11:51:38.257Z,15.33
2018-01-20T11:54:07.020Z,16.07
2018-01-20T11:56:34.637Z,16.83
2018-01-20T11:59:02.223Z,17.07
2018-01-20T12:01:30.086Z,15.83
2018-01-20T12:03:57.633Z,13.13
2018-01-20T12:06:25.283Z,15.57
2018-01-20T12:08:52.800Z,16.87
2018-01-20T12:11:20.903Z,15.03
2018-01-20T12:13:49.166Z,16.20
2018-01-20T12:16:16.758Z,15.83
2018-01-20T12:18:44.333Z,14.93
2018-01-20T12:21:11.950Z,16.70
2018-01-20T12:23:39.999Z,17.00
2018-01-20T12:26:08.095Z,15.80
2018-01-20T12:28:35.713Z,14.43
2018-01-20T12:31:03.248Z,16.40
2018-01-20T12:33:31.016Z,13.40
2018-01-20T12:35:58.603Z,14.97
2018-01-20T12:38:26.124Z,14.87
2018-01-20T12:40:54.059Z,12.03
2018-01-20T12:43:21.628Z,14.50
2018-01-20T12:45:49.209Z,18.30
2018-01-20T12:48:16.834Z,15.57
2018-01-20T12:50:44.418Z,16.00
2018-01-20T12:53:12.452Z,14.07
2018-01-20T12:55:40.154Z,13.77
2018-01-20T12:58:07.720Z,15.50
2018-01-20T13:00:35.601Z,12.80
2018-01-20T13:03:03.139Z,14.03
2018-01-20T13:05:30.816Z,15.47
2018-01-20T13:07:58.702Z,21.37
2018-01-20T13:10:26.392Z,15.70
2018-01-20T13:12:53.952Z,18.40
2018-01-20T13:15:21.550Z,51.23
2018-01-20T13:17:49.189Z,14.60
2018-01-20T13:20:16.772Z,20.27
2018-01-20T13:22:44.331Z,16.23
2018-01-20T13:25:12.226Z,15.57
2018-01-20T13:27:39.748Z,15.33
2018-01-20T13:30:07.409Z,15.00
2018-01-20T13:32:35.036Z,12.40
2018-01-20T13:35:02.617Z,11.83
2018-01-20T13:37:30.252Z,10.73
2018-01-20T13:39:57.983Z,13.17
2018-01-20T13:42:25.570Z,12.50
2018-01-20T13:44:53.148Z,11.00
2018-01-20T13:47:20.809Z,11.73
2018-01-20T13:49:48.394Z,11.50
2018-01-20T13:52:15.969Z,12.17
2018-01-20T13:54:43.572Z,12.80
2018-01-20T13:57:11.218Z,12.57
2018-01-20T13:59:38.862Z,12.33
2018-01-20T14:02:06.384Z,13.53
2018-01-20T14:04:34.249Z,15.27
2018-01-20T14:07:01.798Z,15.90
2018-01-20T14:09:29.321Z,13.70
2018-01-20T14:11:57.239Z,12.50
2018-01-20T14:14:24.770Z,11.43
2018-01-20T14:16:52.338Z,11.70
2018-01-20T14:19:20.260Z,11.80
2018-01-20T14:21:47.872Z,13.23
2018-01-20T14:24:15.400Z,20.33
2018-01-20T14:26:42.981Z,19.07
2018-01-20T14:29:10.496Z,23.93
2018-01-20T14:31:38.105Z,17.77
2018-01-20T14:34:05.653Z,12.03
2018-01-20T14:36:33.164Z,12.83
2018-01-20T14:39:00.881Z,12.80
2018-01-20T14:41:28.425Z,11.97
2018-01-20T14:43:56.075Z,11.40
2018-01-20T14:46:23.834Z,12.83
2018-01-20T14:48:51.428Z,13.63
2018-01-20T14:51:18.992Z,11.53
2018-01-20T14:53:47.072Z,14.13
2018-01-20T14:56:14.630Z,13.53
2018-01-20T14:58:42.217Z,13.57
2018-01-20T15:01:09.825Z,14.70
2018-01-20T15:03:37.518Z,14.40
2018-01-20T15:06:05.059Z,13.20
2018-01-20T15:08:32.584Z,16.63
2018-01-20T15:11:00.431Z,23.27
2018-01-20T15:13:28.036Z,15.57
2018-01-20T15:15:55.629Z,14.83
2018-01-20T15:18:23.217Z,14.00
2018-01-20T15:20:51.322Z,12.80
2018-01-20T15:23:18.897Z,13.87
2018-01-20T15:25:46.408Z,17.37
2018-01-20T15:28:13.916Z,22.27
2018-01-20T15:30:41.614Z,15.50
2018-01-20T15:33:09.221Z,18.73
2018-01-20T15:35:36.805Z,16.47
2018-01-20T15:38:04.515Z,24.93
2018-01-20T15:40:32.221Z,28.13
2018-01-20T15:42:59.764Z,24.77
2018-01-20T15:45:27.298Z,46.07
2018-01-20T15:47:54.816Z,25.87
2018-01-20T15:50:22.513Z,20.30
2018-01-20T15:52:50.229Z,19.20
2018-01-20T15:55:17.834Z,18.03
2018-01-20T15:57:45.413Z,22.20
2018-01-20T16:00:12.970Z,25.87
2018-01-20T16:02:40.638Z,22.47
2018-01-20T16:05:08.383Z,19.00
2018-01-20T16:07:35.978Z,22.00
2018-01-20T16:10:03.708Z,20.27
2018-01-20T16:12:31.323Z,15.90
2018-01-20T16:14:58.852Z,17.67
2018-01-20T16:17:26.469Z,17.87
2018-01-20T16:19:54.038Z,16.80
2018-01-20T16:22:21.671Z,16.40
2018-01-20T16:24:49.539Z,16.10
2018-01-20T16:27:17.130Z,18.27
2018-01-20T16:29:44.748Z,19.20
2018-01-20T16:32:12.393Z,15.60
2018-01-20T16:34:39.951Z,17.37
2018-01-20T16:37:07.468Z,19.80
2018-01-20T16:39:35.345Z,18.77
2018-01-20T16:42:02.880Z,17.97
2018-01-20T16:44:30.447Z,13.83
2018-01-20T16:46:58.234Z,19.30
2018-01-20T16:49:25.967Z,14.80
2018-01-20T16:51:53.584Z,13.47
2018-01-20T16:54:21.382Z,14.70
2018-01-20T16:56:48.953Z,14.30
2018-01-20T16:59:16.824Z,14.30
2018-01-20T17:01:44.359Z,15.40
2018-01-20T17:04:11.911Z,16.17
2018-01-20T17:06:39.442Z,22.87
2018-01-20T17:09:06.961Z,20.53
2018-01-20T17:11:34.542Z,20.60
2018-01-20T17:14:02.055Z,18.70
2018-01-20T17:16:29.837Z,20.30
2018-01-20T17:18:57.914Z,19.33
2018-01-20T17:21:25.453Z,20.30
2018-01-20T17:23:53.036Z,20.20
2018-01-20T17:26:20.574Z,20.57
2018-01-20T17:28:48.256Z,20.60
2018-01-20T17:31:15.832Z,17.97
2018-01-20T17:33:43.740Z,20.50
2018-01-20T17:36:11.638Z,18.70
2018-01-20T17:38:39.155Z,18.97
2018-01-20T17:41:06.714Z,19.20
2018-01-20T17:43:34.606Z,20.73
2018-01-20T17:46:02.149Z,32.13
2018-01-20T17:48:29.683Z,29.80
2018-01-20T17:50:57.688Z,30.50
2018-01-20T17:53:25.271Z,26.40
2018-01-20T17:55:52.857Z,27.93
2018-01-20T17:58:20.453Z,28.07
2018-01-20T18:00:47.996Z,27.60
2018-01-20T18:03:15.532Z,22.00
2018-01-20T18:05:43.080Z,22.93
2018-01-20T18:08:10.907Z,26.93
2018-01-20T18:10:38.596Z,25.00
2018-01-20T18:13:06.151Z,29.90
2018-01-20T18:15:33.745Z,38.50
2018-01-20T18:18:01.302Z,34.50
2018-01-20T18:20:28.893Z,33.67
2018-01-20T18:22:56.453Z,43.37
2018-01-20T18:25:24.070Z,30.93
2018-01-20T18:27:51.672Z,33.67
2018-01-20T18:30:19.224Z,28.70
2018-01-20T18:32:46.863Z,25.83
2018-01-20T18:35:14.413Z,28.40
2018-01-20T18:37:42.054Z,36.07
2018-01-20T18:40:09.609Z,30.37
2018-01-20T18:42:37.214Z,33.53
2018-01-20T18:45:04.795Z,34.10
2018-01-20T18:47:32.351Z,35.07
2018-01-20T18:49:59.919Z,29.73
2018-01-20T18:52:27.810Z,33.00
2018-01-20T18:54:55.471Z,31.00
2018-01-20T18:57:22.997Z,32.10
2018-01-20T18:59:50.573Z,29.20
2018-01-20T19:02:18.134Z,28.13
2018-01-20T19:04:45.693Z,28.53
2018-01-20T19:07:13.306Z,26.77
2018-01-20T19:09:40.865Z,26.70
2018-01-20T19:12:08.392Z,28.67
2018-01-20T19:14:35.935Z,28.80
2018-01-20T19:17:03.528Z,29.90
2018-01-20T19:19:31.204Z,31.50
2018-01-20T19:21:58.716Z,33.00
2018-01-20T19:24:26.292Z,31.10
2018-01-20T19:26:53.822Z,51.37
2018-01-20T19:29:21.387Z,35.70
2018-01-20T19:31:48.981Z,44.13
2018-01-20T19:34:16.537Z,51.33
2018-01-20T19:36:44.139Z,55.60
2018-01-20T19:39:11.808Z,35.50
2018-01-20T19:41:39.334Z,33.90
2018-01-20T19:44:06.904Z,33.53
2018-01-20T19:46:34.451Z,31.20
2018-01-20T19:49:01.973Z,30.67
2018-01-20T19:51:29.798Z,30.83
2018-01-20T19:53:57.334Z,39.30
2018-01-20T19:56:24.891Z,28.83
2018-01-20T19:58:52.488Z,29.43
2018-01-20T20:01:20.047Z,29.33
2018-01-20T20:03:47.588Z,29.60
2018-01-20T20:06:15.198Z,28.70
2018-01-20T20:08:42.852Z,29.37
2018-01-20T20:11:10.376Z,30.53
2018-01-20T20:13:37.923Z,29.67
2018-01-20T20:16:05.535Z,30.83
2018-01-20T20:18:33.085Z,31.83
2018-01-20T20:21:00.882Z,31.83
2018-01-20T20:23:28.446Z,33.53
2018-01-20T20:25:55.982Z,34.57
2018-01-20T20:28:23.599Z,36.10
2018-01-20T20:30:51.275Z,34.30
2018-01-20T20:33:18.863Z,33.57
2018-01-20T20:35:46.462Z,34.17
2018-01-20T20:38:14.009Z,30.70
2018-01-20T20:40:41.617Z,33.33
2018-01-20T20:43:09.229Z,36.30
2018-01-20T20:45:36.835Z,37.00
2018-01-20T20:48:04.353Z,36.90
2018-01-20T20:50:31.891Z,38.97
2018-01-20T20:52:59.460Z,42.97
2018-01-20T20:55:27.054Z,42.10
2018-01-20T20:57:54.659Z,39.07
2018-01-20T21:00:22.274Z,45.73
2018-01-20T21:02:49.887Z,45.40
2018-01-20T21:05:17.436Z,45.43
2018-01-20T21:07:45.013Z,46.40
2018-01-20T21:10:12.597Z,43.30
2018-01-20T21:12:40.223Z,44.40
2018-01-20T21:15:07.893Z,42.77
2018-01-20T21:17:35.462Z,42.27
2018-01-20T21:20:03.027Z,39.57
2018-01-20T21:22:30.628Z,41.17
2018-01-20T21:24:58.218Z,41.00
2018-01-20T21:27:25.742Z,39.63
2018-01-20T21:29:53.338Z,42.20
2018-01-20T21:32:21.115Z,41.20
2018-01-20T21:34:48.806Z,43.03
2018-01-20T21:37:16.344Z,43.50
2018-01-20T21:39:43.916Z,40.80
2018-01-20T21:42:11.471Z,45.27
2018-01-20T21:44:39.050Z,41.40
2018-01-20T21:47:06.637Z,38.50
2018-01-20T21:49:34.229Z,42.93
2018-01-20T21:52:01.834Z,39.70
2018-01-20T21:54:29.450Z,38.80
2018-01-20T21:56:56.980Z,36.10
2018-01-20T21:59:24.542Z,39.77
2018-01-20T22:01:52.121Z,43.63
2018-01-20T22:04:19.661Z,38.97
2018-01-20T22:06:47.593Z,39.43
2018-01-20T22:09:15.192Z,37.47
2018-01-20T22:11:42.733Z,36.30
2018-01-20T22:14:10.286Z,38.90
2018-01-20T22:16:37.849Z,42.93
2018-01-20T22:19:05.442Z,41.07
2018-01-20T22:21:33.005Z,43.37
2018-01-20T22:24:00.632Z,44.30
2018-01-20T22:26:28.171Z,45.10
2018-01-20T22:28:56.067Z,46.23
2018-01-20T22:31:23.642Z,59.83
2018-01-20T22:33:51.210Z,55.07
2018-01-20T22:36:19.148Z,53.20
2018-01-20T22:38:46.708Z,49.90
2018-01-20T22:41:14.243Z,46.20
2018-01-20T22:43:42.682Z,49.17
2018-01-20T22:46:10.211Z,49.67
2018-01-20T22:48:37.770Z,46.53
2018-01-20T22:51:05.316Z,47.50
2018-01-20T22:53:32.945Z,44.27
2018-01-20T22:56:00.502Z,43.93
2018-01-20T22:58:28.376Z,42.53
2018-01-20T23:00:56.000Z,42.20
2018-01-20T23:03:23.567Z,44.60
2018-01-20T23:05:51.092Z,42.90
2018-01-20T23:08:18.712Z,42.27
2018-01-20T23:10:46.309Z,40.73
2018-01-20T23:13:13.890Z,40.17
2018-01-20T23:15:41.411Z,38.67
2018-01-20T23:18:08.964Z,39.13
2018-01-20T23:20:36.588Z,35.97
2018-01-20T23:23:04.118Z,41.07
2018-01-20T23:25:32.057Z,41.30
2018-01-20T23:27:59.613Z,37.47
2018-01-20T23:30:27.186Z,38.80
2018-01-20T23:32:54.768Z,39.87
2018-01-20T23:35:22.300Z,39.00
2018-01-20T23:37:49.852Z,41.63
2018-01-20T23:40:17.400Z,42.17
2018-01-20T23:42:44.982Z,39.57
2018-01-20T23:45:12.541Z,38.50
2018-01-20T23:47:40.403Z,40.77
2018-01-20T23:50:07.956Z,36.70
2018-01-20T23:52:35.737Z,42.20
2018-01-20T23:55:03.315Z,43.03
2018-01-20T23:57:30.940Z,38.90
2018-01-20T23:59:58.525Z,38.63
